createdAt,value
2019-05-19T00:00:06.610Z,24.00
2019-05-19T00:01:28.305Z,24.00
2019-05-19T00:02:50.541Z,24.00
2019-05-19T00:04:12.223Z,24.00
2019-05-19T00:05:33.881Z,24.00
2019-05-19T00:06:55.373Z,24.00
2019-05-19T00:08:16.985Z,24.00
2019-05-19T00:09:38.293Z,24.00
2019-05-19T00:10:59.776Z,24.00
2019-05-19T00:12:21.441Z,24.00
2019-05-19T00:13:42.928Z,24.00
2019-05-19T00:15:05.565Z,24.00
2019-05-19T00:16:27.076Z,24.00
2019-05-19T00:17:48.486Z,24.00
2019-05-19T00:19:10.306Z,24.00
2019-05-19T00:20:31.711Z,24.00
2019-05-19T00:21:54.188Z,24.00
2019-05-19T00:23:16.166Z,24.00
2019-05-19T00:24:37.755Z,24.00
2019-05-19T00:25:59.701Z,24.00
2019-05-19T00:27:22.338Z,24.00
2019-05-19T00:28:45.465Z,24.00
2019-05-19T00:30:07.100Z,24.00
2019-05-19T00:31:28.715Z,24.00
2019-05-19T00:32:49.893Z,24.00
2019-05-19T00:34:11.635Z,24.00
2019-05-19T00:35:34.885Z,24.00
2019-05-19T00:36:57.252Z,24.00
2019-05-19T00:38:18.776Z,24.00
2019-05-19T00:39:40.749Z,24.00
2019-05-19T00:41:03.136Z,24.00
2019-05-19T00:42:24.797Z,24.00
2019-05-19T00:43:46.204Z,24.00
2019-05-19T00:45:07.921Z,24.00
2019-05-19T00:46:29.738Z,24.00
2019-05-19T00:47:52.962Z,24.00
2019-05-19T00:49:14.501Z,24.00
2019-05-19T00:50:36.217Z,24.00
2019-05-19T00:51:57.627Z,24.00
2019-05-19T00:53:19.341Z,24.00
2019-05-19T00:54:41.735Z,24.00
2019-05-19T00:56:03.490Z,24.00
2019-05-19T00:57:25.318Z,24.00
2019-05-19T00:58:47.028Z,24.00
2019-05-19T01:00:08.571Z,24.00
2019-05-19T01:01:29.944Z,24.00
2019-05-19T01:02:53.380Z,24.00
2019-05-19T01:04:14.910Z,24.00
2019-05-19T01:05:36.421Z,24.00
2019-05-19T01:06:59.844Z,24.00
2019-05-19T01:08:20.877Z,23.90
2019-05-19T01:09:42.593Z,23.90
2019-05-19T01:11:04.103Z,23.90
2019-05-19T01:12:25.512Z,23.90
2019-05-19T01:13:47.229Z,23.90
2019-05-19T01:15:08.742Z,23.90
2019-05-19T01:16:30.045Z,23.90
2019-05-19T01:17:51.658Z,24.00
2019-05-19T01:19:13.477Z,24.00
2019-05-19T01:20:34.886Z,23.90
2019-05-19T01:21:56.888Z,23.90
2019-05-19T01:23:18.810Z,23.90
2019-05-19T01:24:40.562Z,23.90
2019-05-19T01:26:02.135Z,23.90
2019-05-19T01:27:24.366Z,23.90
2019-05-19T01:28:46.103Z,23.90
2019-05-19T01:30:09.773Z,23.90
2019-05-19T01:31:32.524Z,23.90
2019-05-19T01:32:55.087Z,23.90
2019-05-19T01:34:16.753Z,23.90
2019-05-19T01:35:38.677Z,23.90
2019-05-19T01:36:59.956Z,23.90
2019-05-19T01:38:21.388Z,23.90
2019-05-19T01:39:43.107Z,23.90
2019-05-19T01:41:04.513Z,23.90
2019-05-19T01:42:26.024Z,23.90
2019-05-19T01:43:47.538Z,23.90
2019-05-19T01:45:09.719Z,23.90
2019-05-19T01:46:31.172Z,23.90
2019-05-19T01:47:53.201Z,23.90
2019-05-19T01:49:14.988Z,23.90
2019-05-19T01:50:36.526Z,23.90
2019-05-19T01:51:59.012Z,23.90
2019-05-19T01:53:20.981Z,23.90
2019-05-19T01:54:42.490Z,23.90
2019-05-19T01:56:05.189Z,23.90
2019-05-19T01:57:26.638Z,23.90
2019-05-19T01:58:48.459Z,23.90
2019-05-19T02:00:10.082Z,23.90
2019-05-19T02:01:32.949Z,23.90
2019-05-19T02:02:54.425Z,23.90
2019-05-19T02:04:16.036Z,23.90
2019-05-19T02:05:37.418Z,23.90
2019-05-19T02:07:00.207Z,23.90
2019-05-19T02:08:22.749Z,23.90
2019-05-19T02:09:44.619Z,23.90
2019-05-19T02:11:06.357Z,23.90
2019-05-19T02:12:27.764Z,23.90
2019-05-19T02:13:49.586Z,23.90
2019-05-19T02:15:11.606Z,23.90
2019-05-19T02:16:33.529Z,23.90
2019-05-19T02:17:55.121Z,23.90
2019-05-19T02:19:16.959Z,23.90
2019-05-19T02:20:38.469Z,23.90
2019-05-19T02:22:00.082Z,23.90
2019-05-19T02:23:21.475Z,23.90
2019-05-19T02:24:43.426Z,23.90
2019-05-19T02:26:06.661Z,23.90
2019-05-19T02:27:28.484Z,23.90
2019-05-19T02:28:50.095Z,23.90
2019-05-19T02:30:11.375Z,23.90
2019-05-19T02:31:33.121Z,23.90
2019-05-19T02:32:55.457Z,23.90
2019-05-19T02:34:17.243Z,23.90
2019-05-19T02:35:38.983Z,23.90
2019-05-19T02:37:00.392Z,23.90
2019-05-19T02:38:23.061Z,23.90
2019-05-19T02:39:44.616Z,23.90
2019-05-19T02:41:06.459Z,23.90
2019-05-19T02:42:28.277Z,23.90
2019-05-19T02:43:50.684Z,23.90
2019-05-19T02:45:13.248Z,23.90
2019-05-19T02:46:36.905Z,23.80
2019-05-19T02:47:58.212Z,23.90
2019-05-19T02:49:20.133Z,23.90
2019-05-19T02:50:51.437Z,23.90
2019-05-19T02:52:05.010Z,23.90
2019-05-19T02:53:26.718Z,23.90
2019-05-19T02:54:48.736Z,23.90
2019-05-19T02:56:10.657Z,23.80
2019-05-19T02:57:32.357Z,23.80
2019-05-19T02:58:53.987Z,23.80
2019-05-19T03:00:16.318Z,23.90
2019-05-19T03:01:37.725Z,23.90
2019-05-19T03:02:59.134Z,23.90
2019-05-19T03:04:20.543Z,23.90
2019-05-19T03:05:42.360Z,23.80
2019-05-19T03:07:05.204Z,23.80
2019-05-19T03:08:26.689Z,23.90
2019-05-19T03:09:48.331Z,23.80
2019-05-19T03:11:09.839Z,23.80
2019-05-19T03:12:31.554Z,23.80
2019-05-19T03:13:52.963Z,23.80
2019-05-19T03:15:14.658Z,23.80
2019-05-19T03:16:36.292Z,23.90
2019-05-19T03:17:57.881Z,23.80
2019-05-19T03:19:20.401Z,23.80
2019-05-19T03:20:41.847Z,23.80
2019-05-19T03:22:03.363Z,23.80
2019-05-19T03:23:24.978Z,23.80
2019-05-19T03:24:46.483Z,23.80
2019-05-19T03:26:08.301Z,23.90
2019-05-19T03:27:29.609Z,23.80
2019-05-19T03:28:51.120Z,23.80
2019-05-19T03:30:13.738Z,23.80
2019-05-19T03:31:35.065Z,23.80
2019-05-19T03:32:56.784Z,23.80
2019-05-19T03:34:18.188Z,23.90
2019-05-19T03:35:40.007Z,23.80
2019-05-19T03:37:01.619Z,23.80
2019-05-19T03:38:24.600Z,23.80
2019-05-19T03:39:45.972Z,23.90
2019-05-19T03:41:07.589Z,23.80
2019-05-19T03:42:29.403Z,23.80
2019-05-19T03:43:50.914Z,23.80
2019-05-19T03:45:12.732Z,23.80
2019-05-19T03:46:34.244Z,23.80
2019-05-19T03:47:56.268Z,23.80
2019-05-19T03:49:18.391Z,23.80
2019-05-19T03:50:40.011Z,23.90
2019-05-19T03:52:03.473Z,23.90
2019-05-19T03:53:26.544Z,23.80
2019-05-19T03:54:48.020Z,23.80
2019-05-19T03:56:09.736Z,23.80
2019-05-19T03:57:31.541Z,23.90
2019-05-19T03:58:53.274Z,23.90
2019-05-19T04:00:14.885Z,23.80
2019-05-19T04:01:36.598Z,23.80
2019-05-19T04:02:57.802Z,23.80
2019-05-19T04:04:20.032Z,23.80
2019-05-19T04:05:41.642Z,23.80
2019-05-19T04:07:03.463Z,23.90
2019-05-19T04:08:25.075Z,23.80
2019-05-19T04:09:46.586Z,23.90
2019-05-19T04:11:08.100Z,23.90
2019-05-19T04:12:29.507Z,23.90
2019-05-19T04:13:50.913Z,23.90
2019-05-19T04:15:12.321Z,23.90
2019-05-19T04:16:33.937Z,23.90
2019-05-19T04:17:56.422Z,23.90
2019-05-19T04:19:18.084Z,23.90
2019-05-19T04:20:39.595Z,23.90
2019-05-19T04:22:01.312Z,23.90
2019-05-19T04:23:23.028Z,23.90
2019-05-19T04:24:45.699Z,23.90
2019-05-19T04:26:07.346Z,23.90
2019-05-19T04:27:29.480Z,23.90
2019-05-19T04:28:51.222Z,23.90
2019-05-19T04:30:14.474Z,23.90
2019-05-19T04:31:35.886Z,23.90
2019-05-19T04:32:57.905Z,23.90
2019-05-19T04:34:19.521Z,23.90
2019-05-19T04:35:41.030Z,23.90
2019-05-19T04:37:02.551Z,23.90
2019-05-19T04:38:24.255Z,24.00
2019-05-19T04:39:47.041Z,24.00
2019-05-19T04:41:08.609Z,24.00
2019-05-19T04:42:31.079Z,24.00
2019-05-19T04:43:52.858Z,24.00
2019-05-19T04:45:14.577Z,24.00
2019-05-19T04:46:36.496Z,24.00
2019-05-19T04:47:57.802Z,24.10
2019-05-19T04:49:19.228Z,24.10
2019-05-19T04:50:41.132Z,24.10
2019-05-19T04:52:06.542Z,24.20
2019-05-19T04:53:27.115Z,24.20
2019-05-19T04:54:48.617Z,24.30
2019-05-19T04:56:10.431Z,24.30
2019-05-19T04:57:32.167Z,24.40
2019-05-19T04:58:53.887Z,24.40
2019-05-19T05:00:15.706Z,24.50
2019-05-19T05:01:37.493Z,24.50
2019-05-19T05:02:59.135Z,24.60
2019-05-19T05:04:20.751Z,24.70
2019-05-19T05:05:43.518Z,24.70
2019-05-19T05:07:05.305Z,24.80
2019-05-19T05:08:30.163Z,24.80
2019-05-19T05:09:49.864Z,24.90
2019-05-19T05:11:11.374Z,24.90
2019-05-19T05:12:33.373Z,25.00
2019-05-19T05:13:55.932Z,25.00
2019-05-19T05:15:17.450Z,25.10
2019-05-19T05:16:38.952Z,25.10
2019-05-19T05:18:00.644Z,25.20
2019-05-19T05:19:22.364Z,25.20
2019-05-19T05:20:43.896Z,25.30
2019-05-19T05:22:19.824Z,25.40
2019-05-19T05:23:28.659Z,25.40
2019-05-19T05:24:50.169Z,25.40
2019-05-19T05:26:11.579Z,25.50
2019-05-19T05:27:33.089Z,25.60
2019-05-19T05:28:54.702Z,25.60
2019-05-19T05:30:16.321Z,25.70
2019-05-19T05:31:37.726Z,25.70
2019-05-19T05:32:59.314Z,25.70
2019-05-19T05:34:20.850Z,25.80
2019-05-19T05:35:42.975Z,25.80
2019-05-19T05:37:04.485Z,25.90
2019-05-19T05:38:26.099Z,25.90
2019-05-19T05:39:48.019Z,26.00
2019-05-19T05:41:10.248Z,26.00
2019-05-19T05:42:32.083Z,26.10
2019-05-19T05:43:53.761Z,26.10
2019-05-19T05:45:15.294Z,26.20
2019-05-19T05:46:37.092Z,26.20
2019-05-19T05:47:58.929Z,26.30
2019-05-19T05:49:20.543Z,26.30
2019-05-19T05:50:41.753Z,26.40
2019-05-19T05:52:03.539Z,26.40
2019-05-19T05:53:25.255Z,26.50
2019-05-19T05:54:46.689Z,26.50
2019-05-19T05:56:07.995Z,26.60
2019-05-19T05:57:29.614Z,26.60
2019-05-19T05:58:50.924Z,26.70
2019-05-19T06:00:15.749Z,26.80
2019-05-19T06:01:35.679Z,26.80
2019-05-19T06:02:57.110Z,26.90
2019-05-19T06:04:18.468Z,26.90
2019-05-19T06:05:41.413Z,26.90
2019-05-19T06:07:04.107Z,26.90
2019-05-19T06:08:25.591Z,27.00
2019-05-19T06:09:47.100Z,26.90
2019-05-19T06:11:09.001Z,27.00
2019-05-19T06:12:30.842Z,27.10
2019-05-19T06:13:52.763Z,27.10
2019-05-19T06:15:14.048Z,27.10
2019-05-19T06:16:35.782Z,27.20
2019-05-19T06:17:57.497Z,27.20
2019-05-19T06:19:20.339Z,27.30
2019-05-19T06:20:41.748Z,27.30
2019-05-19T06:22:03.366Z,27.30
2019-05-19T06:23:25.180Z,27.40
2019-05-19T06:24:47.002Z,27.40
2019-05-19T06:26:08.818Z,27.50
2019-05-19T06:27:30.329Z,27.50
2019-05-19T06:28:53.954Z,27.60
2019-05-19T06:30:15.995Z,27.70
2019-05-19T06:31:37.318Z,27.60
2019-05-19T06:32:59.037Z,27.70
2019-05-19T06:34:20.853Z,27.70
2019-05-19T06:35:42.366Z,27.80
2019-05-19T06:37:03.977Z,27.80
2019-05-19T06:38:25.389Z,27.80
2019-05-19T06:39:46.999Z,27.90
2019-05-19T06:41:08.516Z,27.90
2019-05-19T06:42:30.023Z,28.00
2019-05-19T06:43:51.534Z,28.00
2019-05-19T06:45:14.376Z,28.00
2019-05-19T06:46:35.965Z,28.10
2019-05-19T06:47:57.397Z,28.10
2019-05-19T06:49:19.011Z,28.10
2019-05-19T06:50:40.938Z,28.10
2019-05-19T06:52:02.724Z,28.20
2019-05-19T06:53:25.410Z,28.20
2019-05-19T06:54:46.899Z,28.20
2019-05-19T06:56:08.309Z,28.30
2019-05-19T06:57:30.126Z,28.30
2019-05-19T06:58:51.642Z,28.30
2019-05-19T07:00:13.764Z,28.40
2019-05-19T07:01:35.248Z,28.50
2019-05-19T07:02:56.784Z,28.50
2019-05-19T07:04:18.579Z,28.50
2019-05-19T07:05:40.423Z,28.50
2019-05-19T07:07:02.267Z,28.50
2019-05-19T07:08:25.162Z,28.60
2019-05-19T07:09:57.805Z,28.60
2019-05-19T07:11:09.640Z,28.70
2019-05-19T07:12:31.048Z,28.70
2019-05-19T07:13:52.870Z,28.80
2019-05-19T07:15:15.402Z,28.70
2019-05-19T07:16:36.812Z,28.70
2019-05-19T07:17:58.425Z,28.70
2019-05-19T07:19:19.935Z,28.70
2019-05-19T07:20:41.753Z,28.70
2019-05-19T07:22:04.699Z,28.70
2019-05-19T07:23:28.659Z,28.60
2019-05-19T07:24:49.257Z,28.60
2019-05-19T07:26:12.039Z,28.60
2019-05-19T07:27:33.628Z,28.60
2019-05-19T07:28:55.429Z,28.60
2019-05-19T07:30:17.025Z,28.60
2019-05-19T07:31:38.627Z,28.60
2019-05-19T07:33:00.371Z,28.60
2019-05-19T07:34:21.961Z,28.50
2019-05-19T07:35:43.803Z,28.50
2019-05-19T07:37:05.596Z,28.50
2019-05-19T07:38:27.236Z,28.40
2019-05-19T07:39:48.930Z,28.40
2019-05-19T07:41:10.256Z,28.40
2019-05-19T07:42:32.083Z,28.40
2019-05-19T07:43:53.689Z,28.40
2019-05-19T07:45:15.076Z,28.40
2019-05-19T07:46:36.408Z,28.40
2019-05-19T07:47:58.021Z,28.30
2019-05-19T07:49:19.631Z,28.30
2019-05-19T07:50:41.142Z,28.40
2019-05-19T07:52:02.449Z,28.40
2019-05-19T07:53:25.838Z,28.40
2019-05-19T07:54:47.595Z,28.40
2019-05-19T07:56:09.132Z,28.50
2019-05-19T07:57:30.642Z,28.50
2019-05-19T07:58:52.358Z,28.50
2019-05-19T08:00:14.402Z,28.50
2019-05-19T08:01:35.996Z,28.50
2019-05-19T08:02:57.789Z,28.60
2019-05-19T08:04:19.120Z,28.60
2019-05-19T08:05:40.528Z,28.60
2019-05-19T08:07:03.115Z,28.70
2019-05-19T08:08:24.785Z,28.70
2019-05-19T08:09:46.574Z,28.70
2019-05-19T08:11:08.006Z,28.60
2019-05-19T08:12:29.824Z,28.60
2019-05-19T08:13:51.745Z,28.70
2019-05-19T08:15:13.247Z,28.60
2019-05-19T08:16:34.870Z,28.50
2019-05-19T08:17:57.699Z,28.50
2019-05-19T08:19:19.120Z,28.40
2019-05-19T08:20:40.836Z,28.30
2019-05-19T08:22:02.245Z,28.40
2019-05-19T08:23:23.757Z,28.30
2019-05-19T08:24:45.473Z,28.30
2019-05-19T08:26:06.855Z,28.20
2019-05-19T08:27:28.393Z,28.20
2019-05-19T08:28:49.980Z,28.10
2019-05-19T08:30:11.707Z,28.10
2019-05-19T08:31:33.440Z,28.10
2019-05-19T08:32:54.923Z,28.10
2019-05-19T08:34:16.564Z,28.00
2019-05-19T08:35:38.482Z,28.00
2019-05-19T08:36:59.993Z,28.00
2019-05-19T08:38:21.608Z,27.90
2019-05-19T08:39:42.913Z,27.90
2019-05-19T08:41:04.335Z,27.90
2019-05-19T08:42:25.914Z,27.80
2019-05-19T08:43:47.652Z,27.80
2019-05-19T08:45:09.469Z,27.80
2019-05-19T08:46:30.776Z,27.80
2019-05-19T08:47:52.392Z,27.70
2019-05-19T08:49:14.079Z,27.80
2019-05-19T08:50:35.615Z,27.70
2019-05-19T08:51:57.230Z,27.70
2019-05-19T08:53:18.535Z,27.70
2019-05-19T08:54:40.149Z,27.60
2019-05-19T08:56:01.765Z,27.60
2019-05-19T08:57:23.250Z,27.70
2019-05-19T08:58:44.786Z,27.60
2019-05-19T09:00:06.582Z,27.60
2019-05-19T09:01:28.394Z,27.60
2019-05-19T09:02:50.035Z,27.60
2019-05-19T09:04:11.546Z,27.50
2019-05-19T09:05:33.056Z,27.50
2019-05-19T09:06:54.979Z,27.50
2019-05-19T09:08:16.693Z,27.50
2019-05-19T09:09:38.411Z,27.40
2019-05-19T09:11:00.433Z,27.40
2019-05-19T09:12:22.147Z,27.40
2019-05-19T09:13:43.661Z,27.40
2019-05-19T09:15:05.683Z,27.40
2019-05-19T09:16:28.681Z,27.40
2019-05-19T09:17:50.217Z,27.30
2019-05-19T09:19:11.624Z,27.30
2019-05-19T09:20:33.366Z,27.30
2019-05-19T09:21:54.777Z,27.30
2019-05-19T09:23:16.063Z,27.30
2019-05-19T09:24:37.694Z,27.30
2019-05-19T09:25:59.409Z,27.30
2019-05-19T09:27:20.819Z,27.30
2019-05-19T09:28:42.513Z,27.20
2019-05-19T09:30:06.377Z,27.20
2019-05-19T09:31:27.706Z,27.20
2019-05-19T09:32:49.324Z,27.20
2019-05-19T09:34:11.240Z,27.20
2019-05-19T09:35:33.060Z,27.20
2019-05-19T09:36:54.878Z,27.20
2019-05-19T09:38:16.700Z,27.10
2019-05-19T09:39:38.080Z,27.10
2019-05-19T09:40:59.512Z,27.10
2019-05-19T09:42:21.433Z,27.10
2019-05-19T09:43:42.944Z,27.10
2019-05-19T09:45:07.914Z,27.10
2019-05-19T09:46:29.664Z,27.10
2019-05-19T09:47:51.294Z,27.10
2019-05-19T09:49:12.880Z,27.10
2019-05-19T09:50:34.595Z,27.10
2019-05-19T09:51:57.122Z,27.00
2019-05-19T09:53:18.544Z,27.00
2019-05-19T09:54:45.461Z,27.00
2019-05-19T09:56:03.379Z,27.00
2019-05-19T09:57:25.096Z,26.90
2019-05-19T09:58:46.836Z,27.00
2019-05-19T10:00:09.491Z,27.00
2019-05-19T10:01:31.164Z,26.90
2019-05-19T10:02:52.905Z,26.90
2019-05-19T10:04:14.315Z,26.90
2019-05-19T10:05:36.005Z,26.90
2019-05-19T10:06:57.746Z,26.90
2019-05-19T10:08:19.498Z,26.90
2019-05-19T10:10:01.382Z,26.90
2019-05-19T10:11:48.465Z,26.90
2019-05-19T10:13:10.076Z,26.90
2019-05-19T10:14:31.791Z,26.90
2019-05-19T10:15:53.302Z,26.90
2019-05-19T10:17:16.451Z,26.90
2019-05-19T10:18:37.968Z,26.80
2019-05-19T10:20:00.087Z,26.80
2019-05-19T10:21:22.008Z,26.90
2019-05-19T10:22:43.521Z,26.80
2019-05-19T10:24:05.108Z,26.80
2019-05-19T10:25:26.644Z,26.80
2019-05-19T10:26:48.259Z,26.80
2019-05-19T10:28:10.280Z,26.80
2019-05-19T10:29:31.664Z,26.80
2019-05-19T10:30:53.712Z,26.80
2019-05-19T10:32:15.022Z,26.80
2019-05-19T10:33:36.709Z,26.80
2019-05-19T10:34:58.962Z,26.80
2019-05-19T10:36:20.576Z,26.80
2019-05-19T10:37:43.026Z,26.80
2019-05-19T10:39:06.057Z,26.80
2019-05-19T10:40:27.566Z,26.80
2019-05-19T10:41:50.685Z,26.80
2019-05-19T10:43:12.123Z,26.80
2019-05-19T10:44:34.100Z,26.80
2019-05-19T10:45:55.740Z,26.80
2019-05-19T10:47:17.271Z,26.80
2019-05-19T10:48:38.888Z,26.80
2019-05-19T10:50:00.499Z,26.70
2019-05-19T10:51:22.112Z,26.80
2019-05-19T10:52:44.520Z,26.70
2019-05-19T10:54:05.954Z,26.70
2019-05-19T10:55:36.070Z,26.70
2019-05-19T10:56:50.716Z,26.70
2019-05-19T10:58:12.461Z,26.70
2019-05-19T10:59:33.738Z,26.70
2019-05-19T11:00:56.172Z,26.70
2019-05-19T11:02:17.580Z,26.70
2019-05-19T11:03:39.193Z,26.70
2019-05-19T11:05:00.909Z,26.70
2019-05-19T11:06:23.446Z,26.70
2019-05-19T11:07:45.265Z,26.70
2019-05-19T11:09:07.491Z,26.70
2019-05-19T11:10:28.877Z,26.70
2019-05-19T11:11:50.512Z,26.70
2019-05-19T11:13:12.331Z,26.70
2019-05-19T11:14:33.843Z,26.70
2019-05-19T11:15:55.559Z,26.70
2019-05-19T11:17:17.763Z,26.70
2019-05-19T11:18:39.684Z,26.70
2019-05-19T11:20:01.096Z,26.70
2019-05-19T11:21:22.625Z,26.70
2019-05-19T11:22:44.239Z,26.60
2019-05-19T11:24:05.956Z,26.60
2019-05-19T11:25:33.994Z,26.60
2019-05-19T11:26:51.332Z,26.60
2019-05-19T11:28:13.058Z,26.60
2019-05-19T11:29:34.560Z,26.60
2019-05-19T11:30:56.295Z,26.60
2019-05-19T11:32:18.607Z,26.60
2019-05-19T11:33:40.220Z,26.50
2019-05-19T11:35:01.768Z,26.60
2019-05-19T11:36:25.105Z,26.60
2019-05-19T11:37:46.800Z,26.60
2019-05-19T11:39:08.620Z,26.60
2019-05-19T11:40:30.437Z,26.60
2019-05-19T11:41:52.254Z,26.50
2019-05-19T11:43:13.664Z,26.60
2019-05-19T11:44:35.175Z,26.60
2019-05-19T11:45:56.891Z,26.50
2019-05-19T11:47:18.914Z,26.50
2019-05-19T11:48:40.424Z,26.50
2019-05-19T11:50:01.847Z,26.50
2019-05-19T11:51:23.346Z,26.50
2019-05-19T11:52:44.650Z,26.50
2019-05-19T11:54:06.572Z,26.50
2019-05-19T11:55:28.468Z,26.50
2019-05-19T11:56:51.750Z,26.50
2019-05-19T11:58:13.563Z,26.50
2019-05-19T11:59:35.361Z,26.50
2019-05-19T12:00:57.180Z,26.50
2019-05-19T12:02:20.531Z,26.50
2019-05-19T12:03:42.166Z,26.50
2019-05-19T12:05:04.700Z,26.50
2019-05-19T12:06:38.531Z,26.50
2019-05-19T12:07:49.259Z,26.40
2019-05-19T12:09:10.974Z,26.40
2019-05-19T12:10:32.902Z,26.40
2019-05-19T12:11:55.227Z,26.40
2019-05-19T12:13:16.737Z,26.40
2019-05-19T12:14:38.452Z,26.40
2019-05-19T12:16:00.067Z,26.40
2019-05-19T12:17:21.448Z,26.40
2019-05-19T12:18:43.089Z,26.40
2019-05-19T12:20:05.008Z,26.40
2019-05-19T12:21:26.621Z,26.40
2019-05-19T12:22:47.910Z,26.40
2019-05-19T12:24:09.754Z,26.40
2019-05-19T12:25:31.463Z,26.40
2019-05-19T12:26:53.389Z,26.40
2019-05-19T12:28:15.100Z,26.40
2019-05-19T12:29:36.918Z,26.40
2019-05-19T12:30:58.530Z,26.40
2019-05-19T12:32:20.266Z,26.40
2019-05-19T12:33:51.445Z,26.40
2019-05-19T12:35:06.525Z,26.40
2019-05-19T12:36:28.261Z,26.40
2019-05-19T12:37:49.883Z,26.40
2019-05-19T12:39:11.469Z,26.40
2019-05-19T12:40:33.863Z,26.40
2019-05-19T12:41:55.332Z,26.40
2019-05-19T12:43:17.147Z,26.40
2019-05-19T12:44:38.760Z,26.40
2019-05-19T12:46:00.798Z,26.40
2019-05-19T12:47:22.705Z,26.40
2019-05-19T12:48:43.907Z,26.40
2019-05-19T12:50:05.942Z,26.40
2019-05-19T12:51:27.623Z,26.40
2019-05-19T12:52:49.363Z,26.40
2019-05-19T12:54:12.962Z,26.40
2019-05-19T12:55:34.433Z,26.40
2019-05-19T12:56:55.919Z,26.40
2019-05-19T12:58:17.455Z,26.40
2019-05-19T12:59:38.863Z,26.40
2019-05-19T13:01:00.579Z,26.40
2019-05-19T13:02:22.000Z,26.40
2019-05-19T13:03:43.498Z,26.40
2019-05-19T13:05:06.260Z,26.40
2019-05-19T13:06:29.168Z,26.30
2019-05-19T13:07:50.615Z,26.40
2019-05-19T13:09:12.717Z,26.30
2019-05-19T13:10:34.127Z,26.30
2019-05-19T13:11:56.021Z,26.30
2019-05-19T13:13:18.838Z,26.30
2019-05-19T13:14:40.195Z,26.30
2019-05-19T13:16:01.706Z,26.30
2019-05-19T13:17:23.013Z,26.20
2019-05-19T13:18:44.524Z,26.30
2019-05-19T13:20:07.217Z,26.30
2019-05-19T13:21:28.776Z,26.20
2019-05-19T13:22:50.701Z,26.20
2019-05-19T13:24:12.206Z,26.20
2019-05-19T13:25:33.616Z,26.20
2019-05-19T13:26:56.893Z,26.20
2019-05-19T13:28:18.377Z,26.20
2019-05-19T13:29:39.889Z,26.20
2019-05-19T13:31:01.376Z,26.10
2019-05-19T13:32:22.794Z,26.10
2019-05-19T13:33:44.322Z,26.10
2019-05-19T13:35:06.242Z,26.10
2019-05-19T13:36:28.599Z,26.10
2019-05-19T13:37:50.490Z,26.10
2019-05-19T13:39:12.009Z,26.10
2019-05-19T13:40:33.521Z,26.10
2019-05-19T13:41:55.229Z,26.00
2019-05-19T13:43:17.824Z,26.10
2019-05-19T13:44:39.172Z,26.00
2019-05-19T13:46:00.786Z,26.00
2019-05-19T13:47:23.682Z,26.00
2019-05-19T13:48:45.344Z,26.00
2019-05-19T13:50:07.572Z,26.00
2019-05-19T13:51:28.878Z,26.00
2019-05-19T13:52:51.339Z,26.00
2019-05-19T13:54:13.232Z,26.00
2019-05-19T13:55:34.716Z,26.00
2019-05-19T13:57:11.070Z,26.00
2019-05-19T13:58:19.198Z,26.00
2019-05-19T13:59:41.020Z,26.00
2019-05-19T14:01:02.629Z,26.00
2019-05-19T14:02:24.140Z,26.00
2019-05-19T14:03:45.963Z,26.00
2019-05-19T14:05:07.344Z,25.90
2019-05-19T14:06:29.186Z,25.90
2019-05-19T14:07:50.672Z,25.90
2019-05-19T14:09:15.191Z,25.90
2019-05-19T14:10:35.770Z,25.90
2019-05-19T14:11:57.053Z,25.90
2019-05-19T14:13:18.789Z,25.90
2019-05-19T14:14:40.709Z,25.90
2019-05-19T14:16:02.223Z,25.90
2019-05-19T14:17:24.818Z,25.90
2019-05-19T14:18:46.267Z,25.90
2019-05-19T14:20:07.572Z,25.90
2019-05-19T14:21:29.197Z,25.90
2019-05-19T14:22:50.600Z,25.80
2019-05-19T14:24:12.007Z,25.90
2019-05-19T14:25:33.821Z,25.90
2019-05-19T14:26:55.230Z,25.90
2019-05-19T14:28:16.921Z,25.80
2019-05-19T14:29:38.356Z,25.90
2019-05-19T14:31:01.866Z,25.80
2019-05-19T14:32:23.527Z,25.80
2019-05-19T14:33:49.032Z,25.80
2019-05-19T14:35:10.748Z,25.80
2019-05-19T14:36:32.467Z,25.80
2019-05-19T14:37:54.186Z,25.80
2019-05-19T14:39:15.690Z,25.80
2019-05-19T14:40:37.510Z,25.80
2019-05-19T14:41:59.123Z,25.70
2019-05-19T14:43:20.722Z,25.80
2019-05-19T14:44:42.456Z,25.70
2019-05-19T14:46:05.733Z,25.80
2019-05-19T14:47:27.255Z,25.80
2019-05-19T14:48:49.032Z,25.80
2019-05-19T14:50:11.240Z,25.70
2019-05-19T14:51:33.155Z,25.80
2019-05-19T14:52:54.691Z,25.70
2019-05-19T14:54:16.511Z,25.70
2019-05-19T14:55:38.198Z,25.70
2019-05-19T14:57:00.147Z,25.70
2019-05-19T14:58:21.454Z,25.70
2019-05-19T14:59:43.170Z,25.70
2019-05-19T15:01:04.476Z,25.70
2019-05-19T15:02:26.087Z,25.70
2019-05-19T15:03:47.600Z,25.70
2019-05-19T15:05:09.315Z,25.70
2019-05-19T15:06:30.826Z,25.70
2019-05-19T15:07:52.747Z,25.70
2019-05-19T15:09:14.259Z,25.70
2019-05-19T15:10:35.850Z,25.70
2019-05-19T15:11:57.382Z,25.70
2019-05-19T15:13:18.995Z,25.70
2019-05-19T15:14:41.124Z,25.70
2019-05-19T15:16:02.529Z,25.70
2019-05-19T15:17:24.056Z,25.70
2019-05-19T15:18:46.067Z,25.70
2019-05-19T15:20:07.575Z,25.70
2019-05-19T15:21:31.765Z,25.70
2019-05-19T15:22:52.442Z,25.70
2019-05-19T15:24:14.259Z,25.70
2019-05-19T15:25:35.874Z,25.60
2019-05-19T15:26:57.178Z,25.60
2019-05-19T15:28:18.791Z,25.60
2019-05-19T15:29:41.430Z,25.60
2019-05-19T15:31:03.146Z,25.60
2019-05-19T15:32:24.758Z,25.60
2019-05-19T15:33:46.576Z,25.60
2019-05-19T15:35:07.985Z,25.60
2019-05-19T15:36:29.878Z,25.60
2019-05-19T15:37:51.621Z,25.60
2019-05-19T15:39:14.592Z,25.60
2019-05-19T15:40:36.385Z,25.60
2019-05-19T15:41:58.076Z,25.60
2019-05-19T15:43:19.818Z,25.60
2019-05-19T15:44:41.534Z,25.60
2019-05-19T15:46:02.941Z,25.60
2019-05-19T15:47:25.168Z,25.60
2019-05-19T15:48:46.586Z,25.60
2019-05-19T15:50:09.894Z,25.50
2019-05-19T15:51:37.145Z,25.60
2019-05-19T15:52:54.490Z,25.60
2019-05-19T15:54:16.000Z,25.60
2019-05-19T15:55:37.514Z,25.60
2019-05-19T15:56:59.039Z,25.60
2019-05-19T15:58:20.638Z,25.60
2019-05-19T15:59:42.126Z,25.50
2019-05-19T16:01:03.873Z,25.60
2019-05-19T16:02:25.685Z,25.60
2019-05-19T16:03:47.603Z,25.60
2019-05-19T16:05:09.319Z,25.60
2019-05-19T16:06:30.931Z,25.60
2019-05-19T16:07:52.647Z,25.60
2019-05-19T16:09:14.344Z,25.60
2019-05-19T16:10:35.951Z,25.60
2019-05-19T16:11:58.003Z,25.60
2019-05-19T16:13:21.969Z,25.60
2019-05-19T16:14:43.172Z,25.60
2019-05-19T16:16:05.812Z,25.60
2019-05-19T16:17:27.729Z,25.60
2019-05-19T16:18:52.975Z,25.60
2019-05-19T16:20:12.673Z,25.60
2019-05-19T16:21:34.081Z,25.60
2019-05-19T16:22:55.720Z,25.60
2019-05-19T16:24:17.310Z,25.60
2019-05-19T16:25:38.821Z,25.60
2019-05-19T16:27:00.745Z,25.60
2019-05-19T16:28:30.259Z,25.60
2019-05-19T16:29:45.603Z,25.60
2019-05-19T16:31:07.141Z,25.60
2019-05-19T16:32:28.754Z,25.50
2019-05-19T16:33:50.240Z,25.50
2019-05-19T16:35:12.187Z,25.50
2019-05-19T16:36:33.699Z,25.50
2019-05-19T16:37:55.620Z,25.40
2019-05-19T16:39:17.027Z,25.30
2019-05-19T16:40:38.845Z,25.30
2019-05-19T16:42:00.159Z,25.30
2019-05-19T16:43:22.695Z,25.40
2019-05-19T16:44:44.197Z,25.40
2019-05-19T16:46:05.686Z,25.40
2019-05-19T16:47:27.118Z,25.40
2019-05-19T16:48:48.422Z,25.40
2019-05-19T16:50:10.964Z,25.40
2019-05-19T16:51:32.368Z,25.40
2019-05-19T16:52:53.774Z,25.40
2019-05-19T16:54:15.287Z,25.40
2019-05-19T16:55:36.795Z,25.40
2019-05-19T16:56:58.207Z,25.40
2019-05-19T16:58:21.501Z,25.40
2019-05-19T16:59:42.762Z,25.40
2019-05-19T17:01:04.685Z,25.40
2019-05-19T17:02:26.298Z,25.40
2019-05-19T17:03:48.118Z,25.40
2019-05-19T17:05:09.727Z,25.40
2019-05-19T17:06:31.008Z,25.40
2019-05-19T17:07:52.858Z,25.40
2019-05-19T17:09:14.670Z,25.40
2019-05-19T17:10:35.981Z,25.40
2019-05-19T17:11:57.282Z,25.40
2019-05-19T17:13:19.204Z,25.40
2019-05-19T17:14:40.920Z,25.40
2019-05-19T17:16:02.642Z,25.40
2019-05-19T17:17:25.488Z,25.40
2019-05-19T17:18:48.128Z,25.40
2019-05-19T17:20:09.731Z,25.30
2019-05-19T17:21:31.547Z,25.30
2019-05-19T17:22:52.962Z,25.30
2019-05-19T17:24:14.438Z,25.30
2019-05-19T17:25:35.854Z,25.30
2019-05-19T17:26:57.386Z,25.30
2019-05-19T17:28:18.903Z,25.30
2019-05-19T17:29:40.182Z,25.30
2019-05-19T17:31:03.730Z,25.30
2019-05-19T17:32:24.841Z,25.30
2019-05-19T17:33:46.453Z,25.30